Time;durP1;ratioP1;P1;durP2;ratioP2;P2;SDS_P1;SDS_P2;PMS_P1;PMS_P2;Temp;Humidity;BMP_temperature;BMP_pressure;BME280_temperature;BME280_humidity;BME280_pressure;Samples;Min_cycle;Max_cycle;Signal;HPM_P1;HPM_P2
2023/06/21 00:00:01;;;;;;;4.25;2.28;;;;;;;20.68;77.38;101139.59;7390942;19;20018;-73
2023/06/21 00:02:29;;;;;;;4.22;2.17;;;;;;;20.68;77.53;101140.47;7389331;19;20026;-65
2023/06/21 00:04:56;;;;;;;8.05;2.63;;;;;;;20.78;77.46;101129.50;7391493;19;20039;-70
2023/06/21 00:07:23;;;;;;;4.53;2.17;;;;;;;20.58;78.47;101137.09;7386993;19;20025;-68
2023/06/21 00:09:52;;;;;;;5.97;2.92;;;;;;;20.68;78.13;101167.38;7392426;19;20022;-65
2023/06/21 00:12:20;;;;;;;5.65;2.58;;;;;;;20.85;77.67;101162.81;7389752;19;20027;-63
2023/06/21 00:14:47;;;;;;;5.90;2.80;;;;;;;20.98;76.80;101131.81;7388954;19;20043;-65
2023/06/21 00:17:15;;;;;;;5.95;2.92;;;;;;;20.99;77.31;101150.53;7390461;19;20035;-66
2023/06/21 00:19:42;;;;;;;6.50;2.65;;;;;;;21.01;77.17;101132.31;7389900;19;20019;-66
2023/06/21 00:22:10;;;;;;;5.80;2.90;;;;;;;21.04;77.16;101150.00;7387917;19;20019;-69
2023/06/21 00:24:37;;;;;;;6.57;3.50;;;;;;;21.11;77.66;101173.38;7388949;19;20104;-66
2023/06/21 00:27:05;;;;;;;8.30;3.75;;;;;;;21.12;77.52;101160.75;7389355;19;20018;-66
2023/06/21 00:29:32;;;;;;;7.90;3.60;;;;;;;21.08;77.46;101152.16;7388214;19;20487;-66
2023/06/21 00:32:00;;;;;;;9.82;3.90;;;;;;;20.96;77.91;101153.56;7388838;19;20069;-63
2023/06/21 00:34:27;;;;;;;6.38;3.67;;;;;;;21.02;78.04;101150.16;7388601;19;20019;-67
2023/06/21 00:36:54;;;;;;;7.53;3.50;;;;;;;21.08;77.71;101160.25;7389696;19;20047;-63
2023/06/21 00:39:22;;;;;;;5.25;3.08;;;;;;;21.06;77.64;101158.72;7388881;19;20018;-63
2023/06/21 00:41:49;;;;;;;6.78;3.58;;;;;;;21.12;77.46;101164.28;7388300;19;20014;-65
2023/06/21 00:44:16;;;;;;;6.13;3.22;;;;;;;21.11;76.75;101157.22;7388259;19;20060;-66
2023/06/21 00:46:43;;;;;;;7.18;3.70;;;;;;;21.10;77.13;101160.06;7385799;19;20022;-62
2023/06/21 00:49:11;;;;;;;5.43;2.95;;;;;;;21.03;77.22;101151.03;7394107;19;20134;-62
2023/06/21 00:51:38;;;;;;;8.85;3.40;;;;;;;21.00;77.50;101149.50;7395905;19;20020;-63
2023/06/21 00:54:06;;;;;;;5.72;3.33;;;;;;;20.93;77.52;101146.66;7397452;19;20010;-63
2023/06/21 00:56:33;;;;;;;5.60;2.85;;;;;;;20.98;77.05;101156.06;7395529;19;20023;-62
2023/06/21 00:59:04;;;;;;;6.20;3.30;;;;;;;20.97;77.31;101155.22;7395602;19;20098;-62
2023/06/21 01:01:31;;;;;;;4.78;2.95;;;;;;;20.94;77.49;101156.41;7395770;19;20511;-62
2023/06/21 01:04:00;;;;;;;5.95;3.03;;;;;;;20.94;77.48;101160.94;7397355;19;20456;-64
2023/06/21 01:06:35;;;;;;;5.45;3.13;;;;;;;20.94;76.99;101167.16;7395805;19;20032;-64
2023/06/21 01:09:33;;;;;;;3.13;2.47;;;;;;;20.98;77.35;101158.75;7397057;19;20594;-63
2023/06/21 01:12:18;;;;;;;6.97;3.55;;;;;;;20.91;77.81;101155.94;7394738;19;20060;-63
2023/06/21 01:15:12;;;;;;;7.38;3.67;;;;;;;20.93;77.48;101162.81;7397442;19;20015;-63
2023/06/21 01:17:40;;;;;;;7.63;3.92;;;;;;;20.88;78.02;101154.41;7396197;19;20018;-63
2023/06/21 01:20:18;;;;;;;6.78;4.03;;;;;;;20.92;78.16;101154.91;7394915;19;20116;-63
2023/06/21 01:22:51;;;;;;;7.03;4.20;;;;;;;20.94;78.12;101169.84;7396064;19;20082;-64
2023/06/21 01:25:50;;;;;;;8.18;4.38;;;;;;;21.00;78.53;101165.66;7395251;19;20014;-62
2023/06/21 01:28:32;;;;;;;8.02;5.03;;;;;;;21.02;78.03;101162.78;7393672;19;20031;-62
2023/06/21 01:31:01;;;;;;;9.20;5.32;;;;;;;21.01;78.19;101161.09;7395474;19;20010;-63
2023/06/21 01:33:31;;;;;;;8.85;5.88;;;;;;;21.00;78.13;101162.97;7396503;19;20077;-63
2023/06/21 01:36:03;;;;;;;8.93;6.65;;;;;;;21.02;78.61;101170.84;7395240;19;20099;-63
2023/06/21 01:38:30;;;;;;;9.55;6.30;;;;;;;20.94;78.66;101172.56;7396094;19;20019;-63
2023/06/21 01:40:58;;;;;;;9.07;6.35;;;;;;;20.94;78.79;101167.16;7394874;19;20042;-62
2023/06/21 01:43:25;;;;;;;10.32;7.10;;;;;;;20.92;78.88;101173.75;7396029;19;20043;-63
2023/06/21 01:45:53;;;;;;;9.65;6.57;;;;;;;20.95;78.37;101181.50;7394670;19;20512;-63
2023/06/21 01:48:22;;;;;;;10.05;6.35;;;;;;;20.96;78.69;101183.16;7394091;19;20039;-63
2023/06/21 01:50:51;;;;;;;10.75;7.68;;;;;;;20.97;78.34;101186.69;7394980;19;20018;-63
2023/06/21 01:53:19;;;;;;;10.15;7.22;;;;;;;20.91;78.64;101189.06;7396086;19;20061;-63
2023/06/21 01:55:49;;;;;;;10.30;7.78;;;;;;;20.90;78.49;101190.06;7394582;19;20041;-63
2023/06/21 01:58:17;;;;;;;11.40;7.15;;;;;;;20.89;78.43;101184.84;7395638;19;20494;-63
2023/06/21 02:00:47;;;;;;;10.98;8.00;;;;;;;20.85;78.91;101188.91;7391640;19;20415;-63
2023/06/21 02:03:16;;;;;;;12.32;9.10;;;;;;;20.81;78.94;101185.72;7395515;19;20097;-62
2023/06/21 02:05:46;;;;;;;13.48;9.82;;;;;;;20.92;78.30;101195.28;7394551;19;20509;-62
2023/06/21 02:08:16;;;;;;;11.65;9.00;;;;;;;20.93;78.83;101186.19;7391960;19;20043;-62
2023/06/21 02:10:44;;;;;;;13.68;9.93;;;;;;;20.97;78.64;101192.09;7394771;19;20449;-62
2023/06/21 02:13:14;;;;;;;13.95;10.35;;;;;;;20.89;79.02;101187.53;7394768;19;20022;-69
2023/06/21 02:15:42;;;;;;;13.73;10.32;;;;;;;20.98;78.61;101188.38;7394332;19;20019;-68
2023/06/21 02:18:09;;;;;;;14.55;11.50;;;;;;;21.00;78.97;101189.91;7394782;19;20250;-68
2023/06/21 02:20:38;;;;;;;14.98;11.90;;;;;;;20.98;78.58;101194.59;7393878;19;20039;-68
2023/06/21 02:23:05;;;;;;;15.63;12.00;;;;;;;20.97;79.02;101194.78;7394697;19;20015;-68
2023/06/21 02:25:39;;;;;;;15.57;12.10;;;;;;;21.01;78.95;101201.50;7394281;19;20026;-68
2023/06/21 02:28:06;;;;;;;14.68;12.48;;;;;;;21.06;79.02;101200.00;7393156;19;20015;-68
2023/06/21 02:30:33;;;;;;;16.33;13.40;;;;;;;21.08;78.76;101205.19;7394097;19;20032;-70
2023/06/21 02:33:01;;;;;;;16.73;14.93;;;;;;;20.96;79.29;101210.09;7394412;19;20033;-71
2023/06/21 02:35:28;;;;;;;17.17;13.77;;;;;;;21.01;79.39;101209.59;7392658;19;20032;-71
2023/06/21 02:37:56;;;;;;;17.55;13.85;;;;;;;21.04;79.78;101210.09;7393773;19;20026;-71
2023/06/21 02:40:23;;;;;;;18.20;14.85;;;;;;;21.08;79.54;101205.19;7393656;19;20026;-70
2023/06/21 02:42:50;;;;;;;17.40;14.57;;;;;;;21.17;79.42;101206.84;7394362;19;20021;-71
2023/06/21 02:45:18;;;;;;;17.80;15.10;;;;;;;21.20;79.10;101209.22;7393760;19;20026;-71
2023/06/21 02:47:46;;;;;;;16.85;14.75;;;;;;;21.20;79.10;101205.69;7391607;19;20016;-71
2023/06/21 02:50:16;;;;;;;18.92;16.67;;;;;;;21.15;79.45;101204.34;7391647;19;20387;-71
2023/06/21 02:52:43;;;;;;;19.50;16.55;;;;;;;21.20;79.55;101211.06;7394070;19;20025;-71
2023/06/21 02:55:11;;;;;;;21.65;17.77;;;;;;;21.20;79.27;101208.38;7393052;19;20015;-71
2023/06/21 02:57:38;;;;;;;18.45;15.95;;;;;;;21.18;79.44;101205.88;7393544;19;20039;-71
2023/06/21 03:00:17;;;;;;;18.65;16.65;;;;;;;21.16;79.58;101211.41;7392247;19;20022;-71
2023/06/21 03:02:45;;;;;;;18.52;16.52;;;;;;;21.18;79.62;101222.88;7392958;19;20030;-71
2023/06/21 03:05:15;;;;;;;21.08;18.23;;;;;;;21.17;80.20;101217.63;7393333;19;20082;-70
2023/06/21 03:07:44;;;;;;;20.63;18.02;;;;;;;21.20;80.21;101224.53;7391774;19;20026;-71
2023/06/21 03:10:12;;;;;;;22.70;19.25;;;;;;;21.16;79.96;101222.19;7393589;19;20043;-71
2023/06/21 03:12:41;;;;;;;21.95;18.02;;;;;;;21.17;80.02;101231.94;7392391;19;20015;-71
2023/06/21 03:15:10;;;;;;;21.20;17.80;;;;;;;21.20;80.14;101238.00;7393176;19;20028;-68
2023/06/21 03:17:38;;;;;;;23.35;19.25;;;;;;;21.18;79.63;101240.88;7392268;19;20487;-74
2023/06/21 03:20:11;;;;;;;22.17;19.05;;;;;;;21.20;80.02;101246.09;7392909;19;20021;-75
2023/06/21 03:22:41;;;;;;;21.73;19.40;;;;;;;21.25;79.99;101249.94;7390380;19;20077;-75
2023/06/21 03:25:10;;;;;;;22.38;19.42;;;;;;;21.26;79.65;101250.81;7392109;19;20022;-73
2023/06/21 03:27:37;;;;;;;22.83;20.33;;;;;;;21.23;79.88;101251.13;7391066;19;20105;-72
2023/06/21 03:30:12;;;;;;;23.45;20.95;;;;;;;21.24;79.82;101250.13;7392647;19;20097;-64
2023/06/21 03:32:47;;;;;;;25.15;21.67;;;;;;;21.16;79.81;101249.13;7392504;19;20015;-71
2023/06/21 03:35:17;;;;;;;23.10;20.60;;;;;;;21.11;80.51;101254.19;7392555;19;20035;-71
2023/06/21 03:37:46;;;;;;;22.75;19.85;;;;;;;21.18;80.28;101259.75;7391145;19;20011;-72
2023/06/21 03:40:14;;;;;;;24.08;21.50;;;;;;;21.17;80.11;101264.25;7392216;19;20053;-71
2023/06/21 03:42:42;;;;;;;23.08;20.52;;;;;;;21.15;80.22;101270.84;7391884;19;20032;-71
2023/06/21 03:45:11;;;;;;;24.15;21.55;;;;;;;21.15;79.97;101276.25;7391795;19;20019;-69
2023/06/21 03:47:40;;;;;;;23.27;20.40;;;;;;;21.13;80.39;101279.06;7390563;19;20022;-67
2023/06/21 03:50:08;;;;;;;23.25;20.00;;;;;;;21.18;80.31;101286.69;7391933;19;20030;-67
2023/06/21 03:52:36;;;;;;;22.58;19.95;;;;;;;21.16;80.16;101286.81;7390307;19;20078;-66
2023/06/21 03:55:04;;;;;;;24.42;20.90;;;;;;;21.11;80.63;101288.38;7391716;19;20031;-65
2023/06/21 03:57:32;;;;;;;22.67;20.15;;;;;;;21.14;80.13;101312.28;7391224;19;20022;-65
2023/06/21 03:59:59;;;;;;;22.92;20.48;;;;;;;21.10;80.00;101306.38;7391686;19;20019;-65
2023/06/21 04:02:26;;;;;;;23.45;19.45;;;;;;;;;;7389138;19;20463;-66
2023/06/21 04:04:54;;;;;;;22.77;18.92;;;;;;;21.03;80.23;101309.91;7391529;19;20580;-66
2023/06/21 04:07:23;;;;;;;20.08;17.95;;;;;;;;;;7389629;19;20010;-66
2023/06/21 04:09:51;;;;;;;22.67;19.15;;;;;;;21.11;80.20;101310.75;7391276;19;20042;-66
2023/06/21 04:12:18;;;;;;;21.77;19.48;;;;;;;21.03;80.07;101321.53;7389513;19;20082;-66
2023/06/21 04:14:46;;;;;;;21.23;18.73;;;;;;;21.03;79.89;101323.38;7390752;19;20021;-65
2023/06/21 04:17:13;;;;;;;22.08;17.42;;;;;;;;;;7389718;19;20025;-65
2023/06/21 04:19:40;;;;;;;20.77;17.50;;;;;;;21.08;79.80;101335.31;7389048;19;20364;-65
2023/06/21 04:22:07;;;;;;;20.55;18.17;;;;;;;21.08;79.25;101335.31;7388939;19;20018;-65
2023/06/21 04:24:36;;;;;;;22.30;18.58;;;;;;;21.07;79.32;101346.28;7389863;19;20022;-65
2023/06/21 04:27:05;;;;;;;20.38;17.02;;;;;;;21.04;79.73;101354.69;7389681;19;20015;-65
2023/06/21 04:29:36;;;;;;;18.95;16.83;;;;;;;21.04;79.67;101358.22;7390163;19;20025;-65
2023/06/21 04:32:04;;;;;;;18.60;15.75;;;;;;;21.08;79.13;101364.09;7387249;19;20041;-65
2023/06/21 04:34:33;;;;;;;17.42;15.50;;;;;;;21.12;79.15;101368.16;7389949;19;20029;-65
2023/06/21 04:37:05;;;;;;;18.88;16.65;;;;;;;21.12;79.56;101362.75;7388139;19;20039;-75
2023/06/21 04:39:33;;;;;;;18.58;14.18;;;;;;;21.11;79.31;101361.94;7390103;19;20022;-76
2023/06/21 04:42:00;;;;;;;19.02;15.82;;;;;;;21.07;79.72;101375.91;7388061;19;20024;-74
2023/06/21 04:44:28;;;;;;;18.45;15.70;;;;;;;21.04;79.25;101371.69;7388450;19;20374;-74
2023/06/21 04:46:56;;;;;;;17.08;15.15;;;;;;;21.02;79.73;101359.38;7389405;19;20018;-75
2023/06/21 04:49:26;;;;;;;16.67;14.18;;;;;;;21.03;79.70;101366.47;7388189;19;20021;-74
2023/06/21 04:51:57;;;;;;;18.38;14.40;;;;;;;21.13;79.18;101373.34;7389035;19;20567;-73
2023/06/21 04:54:25;;;;;;;18.88;15.00;;;;;;;21.16;79.23;101366.81;7388805;19;20014;-80
2023/06/21 04:56:53;;;;;;;20.00;14.88;;;;;;;21.09;79.16;101384.63;7389778;19;20035;-62
2023/06/21 04:59:20;;;;;;;16.75;14.40;;;;;;;21.15;78.69;101379.44;7390155;19;20023;-62
2023/06/21 05:01:48;;;;;;;18.25;15.63;;;;;;;21.13;78.67;101378.75;7388600;19;20464;-62
2023/06/21 05:04:16;;;;;;;18.08;14.85;;;;;;;21.14;79.18;101374.22;7388288;19;20328;-61
2023/06/21 05:06:43;;;;;;;19.85;16.23;;;;;;;21.08;78.85;101382.97;7389071;19;20052;-60
2023/06/21 05:09:10;;;;;;;19.73;15.75;;;;;;;;;;7387515;19;20098;-60
2023/06/21 05:11:37;;;;;;;21.77;17.38;;;;;;;21.12;79.00;101395.94;7388096;19;20018;-64
2023/06/21 05:14:05;;;;;;;24.20;17.83;;;;;;;21.11;79.32;101402.31;7389297;19;20043;-67
2023/06/21 05:16:32;;;;;;;20.67;18.02;;;;;;;21.09;78.99;101395.41;7389044;19;20011;-61
2023/06/21 05:18:59;;;;;;;25.33;19.60;;;;;;;21.06;79.04;101388.53;7387104;19;20102;-60
2023/06/21 05:21:27;;;;;;;20.42;18.20;;;;;;;21.11;78.81;101391.56;7388833;19;20041;-61
2023/06/21 05:23:54;;;;;;;22.48;20.00;;;;;;;21.09;78.63;101387.34;7388954;19;20089;-60
2023/06/21 05:26:21;;;;;;;23.08;20.60;;;;;;;21.13;78.65;101386.81;7388660;19;20043;-60
2023/06/21 05:28:49;;;;;;;24.33;21.73;;;;;;;21.13;78.45;101386.00;7387613;19;20040;-60
2023/06/21 05:31:16;;;;;;;26.80;21.70;;;;;;;21.15;77.85;101386.69;7386258;19;20367;-60
2023/06/21 05:33:43;;;;;;;23.25;20.70;;;;;;;21.17;77.84;101390.03;7388876;19;20084;-61
2023/06/21 05:36:10;;;;;;;24.35;21.75;;;;;;;21.14;78.02;101385.84;7392217;19;20466;-61
2023/06/21 05:38:38;;;;;;;23.52;21.02;;;;;;;21.19;77.75;101390.72;7394457;19;20499;-61
2023/06/21 05:41:05;;;;;;;24.55;21.77;;;;;;;21.20;77.61;101388.88;7395108;19;20378;-61
2023/06/21 05:43:32;;;;;;;26.20;21.85;;;;;;;21.25;77.29;101399.97;7395663;19;20022;-61
2023/06/21 05:45:59;;;;;;;26.33;22.75;;;;;;;21.25;77.31;101411.59;7394919;19;20019;-61
2023/06/21 05:48:28;;;;;;;26.80;23.98;;;;;;;21.26;77.72;101412.47;7394632;19;20015;-61
2023/06/21 05:50:55;;;;;;;25.73;22.88;;;;;;;21.30;77.07;101421.88;7394982;19;20108;-61
2023/06/21 05:53:23;;;;;;;27.30;24.40;;;;;;;21.33;76.80;101430.50;7395194;19;20015;-61
2023/06/21 05:55:50;;;;;;;25.05;22.30;;;;;;;21.41;76.55;101435.91;7395093;19;20025;-61
2023/06/21 05:58:20;;;;;;;27.38;24.45;;;;;;;21.51;76.55;101434.88;7395279;19;20011;-61
2023/06/21 06:00:47;;;;;;;29.27;25.20;;;;;;;21.46;76.53;101430.00;7393454;19;20023;-61
2023/06/21 06:03:14;;;;;;;27.83;24.80;;;;;;;21.45;76.38;101433.72;7395655;19;20350;-61
2023/06/21 06:05:41;;;;;;;28.58;24.27;;;;;;;21.45;76.42;101435.56;7394140;19;20022;-61
2023/06/21 06:08:09;;;;;;;31.92;25.77;;;;;;;21.42;76.48;101428.66;7394429;19;20018;-61
2023/06/21 06:10:36;;;;;;;28.77;25.30;;;;;;;21.42;76.49;101425.97;7394675;19;20015;-67
2023/06/21 06:13:03;;;;;;;30.13;26.90;;;;;;;21.36;76.02;101430.16;7395047;19;20022;-73
2023/06/21 06:15:30;;;;;;;30.60;27.30;;;;;;;21.37;75.96;101439.09;7393185;19;20022;-72
2023/06/21 06:17:58;;;;;;;30.02;26.85;;;;;;;21.45;75.67;101431.03;7395079;19;20078;-72
2023/06/21 06:20:26;;;;;;;30.92;27.63;;;;;;;21.52;75.62;101434.75;7394261;19;20018;-72
2023/06/21 06:22:54;;;;;;;31.60;28.02;;;;;;;21.55;75.30;101437.06;7394776;19;20015;-68
2023/06/21 06:25:21;;;;;;;30.10;26.90;;;;;;;21.53;74.76;101433.72;7394319;19;20243;-67
2023/06/21 06:27:48;;;;;;;32.35;28.95;;;;;;;21.53;75.17;101431.03;7393729;19;20022;-67
2023/06/21 06:30:15;;;;;;;31.90;28.42;;;;;;;21.59;74.98;101442.97;7394270;19;20032;-68
2023/06/21 06:32:42;;;;;;;31.67;28.35;;;;;;;21.62;74.56;101448.03;7394173;19;20011;-69
2023/06/21 06:35:10;;;;;;;32.65;29.15;;;;;;;21.60;74.50;101455.47;7393716;19;20022;-69
2023/06/21 06:37:37;;;;;;;32.08;28.73;;;;;;;21.65;74.26;101462.03;7393766;19;20047;-69
2023/06/21 06:40:05;;;;;;;32.85;28.92;;;;;;;21.61;74.03;101460.69;7394167;19;20093;-68
2023/06/21 06:42:32;;;;;;;32.95;29.35;;;;;;;21.57;74.24;101464.72;7392048;19;20018;-70
2023/06/21 06:45:01;;;;;;;31.23;28.13;;;;;;;21.66;74.35;101466.41;7392658;19;20011;-71
2023/06/21 06:47:29;;;;;;;33.50;29.95;;;;;;;21.72;74.00;101472.16;7391018;19;20018;-72
2023/06/21 06:49:57;;;;;;;32.88;29.30;;;;;;;21.73;74.13;101476.53;7392159;19;20022;-65
2023/06/21 06:52:24;;;;;;;32.53;29.08;;;;;;;21.78;74.08;101471.44;7391651;19;20019;-66
2023/06/21 06:54:52;;;;;;;31.58;28.25;;;;;;;21.89;73.58;101479.19;7392235;19;20042;-66
2023/06/21 06:57:19;;;;;;;31.23;27.92;;;;;;;22.05;72.99;101481.88;7393269;19;20078;-64
2023/06/21 07:00:05;;;;;;;;;;;;;;;22.19;71.23;101487.63;7394225;19;20104;-66
2023/06/21 07:02:33;;;;;;;29.05;26.00;;;;;;;22.13;71.95;101502.59;7389726;19;19967;-66
2023/06/21 07:05:00;;;;;;;30.15;26.95;;;;;;;22.21;71.25;101505.34;7393602;19;20021;-67
2023/06/21 07:07:28;;;;;;;27.65;24.65;;;;;;;22.18;71.39;101503.00;7392437;19;20018;-67
2023/06/21 07:09:55;;;;;;;26.67;23.75;;;;;;;22.32;70.93;101505.00;7390798;19;20085;-75
2023/06/21 07:12:22;;;;;;;27.15;24.00;;;;;;;22.27;70.71;101493.03;7391088;19;20018;-71
2023/06/21 07:14:49;;;;;;;26.50;23.58;;;;;;;22.20;71.30;101494.72;7390940;19;20019;-74
2023/06/21 07:17:17;;;;;;;27.27;23.13;;;;;;;22.21;70.85;101505.34;7391094;19;20056;-64
2023/06/21 07:19:45;;;;;;;24.23;21.05;;;;;;;22.31;70.30;101515.94;7392883;19;20471;-65
2023/06/21 07:22:13;;;;;;;24.00;21.25;;;;;;;22.34;70.21;101523.72;7389722;19;20014;-65
2023/06/21 07:24:40;;;;;;;24.67;20.55;;;;;;;22.37;69.52;101526.91;7392308;19;20014;-64
2023/06/21 07:27:07;;;;;;;22.02;19.52;;;;;;;22.43;69.10;101532.63;7392193;19;20471;-65
2023/06/21 07:29:34;;;;;;;24.08;18.73;;;;;;;22.45;69.27;101536.84;7391776;19;20494;-65
2023/06/21 07:32:02;;;;;;;22.17;18.70;;;;;;;22.52;68.56;101542.41;7391098;19;20018;-68
2023/06/21 07:34:29;;;;;;;22.05;19.27;;;;;;;22.46;69.65;101543.09;7392779;19;20019;-67
2023/06/21 07:36:57;;;;;;;22.05;18.70;;;;;;;22.29;69.39;101558.47;7391439;19;20038;-68
2023/06/21 07:39:24;;;;;;;22.27;18.50;;;;;;;22.26;69.70;101551.56;7391723;19;20082;-69
2023/06/21 07:41:51;;;;;;;19.23;16.80;;;;;;;22.29;69.29;101547.69;7390370;19;20043;-68
2023/06/21 07:44:38;;;;;;;21.00;16.42;;;;;;;22.46;68.41;101546.63;7389891;19;20025;-68
2023/06/21 07:47:05;;;;;;;19.77;16.45;;;;;;;22.51;67.59;101556.91;7390641;19;20031;-69
2023/06/21 07:49:33;;;;;;;19.50;16.55;;;;;;;22.62;67.06;101546.59;7389853;19;20491;-68
2023/06/21 07:52:00;;;;;;;19.38;15.88;;;;;;;22.48;67.49;101547.31;7390318;19;20042;-68
2023/06/21 07:54:28;;;;;;;19.25;15.35;;;;;;;22.59;67.01;101552.34;7391197;19;20021;-70
2023/06/21 07:56:55;;;;;;;18.65;15.73;;;;;;;22.70;65.85;101551.13;7390574;19;20029;-68
2023/06/21 07:59:22;;;;;;;18.55;15.52;;;;;;;22.71;66.20;101554.69;7389650;19;20019;-69
2023/06/21 08:01:49;;;;;;;17.67;15.35;;;;;;;22.79;66.20;101558.19;7389572;19;20018;-68
2023/06/21 08:04:17;;;;;;;17.63;14.75;;;;;;;22.77;66.17;101548.56;7390984;19;20022;-70
2023/06/21 08:06:44;;;;;;;18.33;14.98;;;;;;;22.92;64.17;101556.84;7390483;19;20055;-69
2023/06/21 08:09:12;;;;;;;18.30;14.60;;;;;;;22.95;64.48;101562.72;7390477;19;20018;-68
2023/06/21 08:11:39;;;;;;;17.67;14.15;;;;;;;22.86;65.02;101566.47;7389281;19;20017;-69
2023/06/21 08:14:07;;;;;;;19.10;15.57;;;;;;;22.95;64.27;101572.69;7390709;19;20021;-68
2023/06/21 08:16:34;;;;;;;17.63;14.85;;;;;;;23.10;63.92;101569.09;7388614;19;20511;-68
2023/06/21 08:19:04;;;;;;;16.55;13.65;;;;;;;23.14;64.56;101566.88;7387164;19;20027;-68
2023/06/21 08:21:31;;;;;;;16.83;14.23;;;;;;;23.11;64.35;101573.47;7389468;19;20015;-68
2023/06/21 08:23:59;;;;;;;16.05;13.25;;;;;;;23.27;64.14;101564.44;7387749;19;20018;-68
2023/06/21 08:26:26;;;;;;;16.63;13.90;;;;;;;23.42;62.95;101566.41;7388086;19;20039;-68
2023/06/21 08:28:53;;;;;;;17.60;14.38;;;;;;;23.31;63.58;101576.63;7389586;19;20103;-67
2023/06/21 08:31:20;;;;;;;16.20;12.75;;;;;;;23.17;63.55;101580.03;7388994;19;20022;-68
2023/06/21 08:33:48;;;;;;;16.00;12.07;;;;;;;23.15;63.77;101584.78;7388665;19;20022;-67
2023/06/21 08:36:15;;;;;;;18.00;13.70;;;;;;;23.11;63.68;101578.88;7389955;19;20047;-68
2023/06/21 08:38:42;;;;;;;16.33;13.45;;;;;;;23.15;63.10;101584.78;7389678;19;20077;-67
2023/06/21 08:41:09;;;;;;;16.92;14.02;;;;;;;23.32;62.26;101582.84;7389436;19;20014;-67
2023/06/21 08:43:37;;;;;;;15.95;12.57;;;;;;;23.27;63.02;101577.13;7390583;19;20340;-67
2023/06/21 08:46:06;;;;;;;16.65;12.75;;;;;;;23.25;63.20;101585.41;7389271;19;20022;-67
2023/06/21 08:48:36;;;;;;;16.02;12.75;;;;;;;23.30;63.17;101590.28;7387845;19;20019;-67
2023/06/21 08:51:05;;;;;;;17.63;12.75;;;;;;;23.39;61.98;101586.53;7389153;19;20043;-67
2023/06/21 08:54:06;;;;;;;15.63;12.85;;;;;;;23.51;62.05;101585.13;7388184;19;20023;-67
2023/06/21 08:57:09;;;;;;;15.38;12.57;;;;;;;23.75;61.70;101592.25;7387813;19;20025;-67
2023/06/21 08:59:47;;;;;;;14.65;12.18;;;;;;;23.88;61.51;101593.53;7389560;19;20035;-67
2023/06/21 09:02:15;;;;;;;14.77;12.05;;;;;;;23.92;60.49;101601.09;7386558;19;20026;-67
2023/06/21 09:04:47;;;;;;;14.65;11.77;;;;;;;23.91;59.93;101595.88;7389766;19;20022;-68
2023/06/21 09:07:15;;;;;;;14.60;12.32;;;;;;;23.85;60.29;101597.44;7388871;19;20011;-67
2023/06/21 09:09:45;;;;;;;15.32;11.43;;;;;;;23.96;59.74;101602.44;7391493;19;20021;-67
2023/06/21 09:12:16;;;;;;;13.30;9.77;;;;;;;24.06;59.39;101616.56;7394262;19;20475;-67
2023/06/21 09:14:44;;;;;;;12.82;10.02;;;;;;;23.90;59.45;101605.03;7397092;19;20475;-67
2023/06/21 09:17:13;;;;;;;13.68;9.93;;;;;;;23.73;59.41;101612.38;7395847;19;20023;-67
2023/06/21 09:19:42;;;;;;;13.38;10.30;;;;;;;23.68;59.03;101606.69;7397240;19;20089;-67
2023/06/21 09:22:13;;;;;;;14.20;11.30;;;;;;;23.55;59.79;101610.78;7393952;19;20025;-67
2023/06/21 09:24:40;;;;;;;14.35;10.57;;;;;;;23.47;60.07;101610.00;7396671;19;20015;-68
2023/06/21 09:27:07;;;;;;;12.52;9.77;;;;;;;23.57;59.50;101618.69;7395708;19;20505;-67
2023/06/21 09:29:35;;;;;;;14.32;10.30;;;;;;;23.79;58.32;101617.09;7394720;19;20086;-67
2023/06/21 09:32:02;;;;;;;12.70;9.27;;;;;;;23.83;58.33;101619.25;7393717;19;20026;-68
2023/06/21 09:34:29;;;;;;;13.13;9.82;;;;;;;23.82;58.30;101622.16;7394488;19;20086;-68
2023/06/21 09:36:57;;;;;;;13.00;9.25;;;;;;;23.72;58.56;101616.13;7395240;19;20024;-68
2023/06/21 09:39:25;;;;;;;12.40;8.63;;;;;;;23.62;58.56;101624.44;7395432;19;20074;-69
2023/06/21 09:41:53;;;;;;;13.77;10.68;;;;;;;23.66;58.45;101620.41;7394333;19;20034;-69
2023/06/21 09:44:21;;;;;;;11.65;9.73;;;;;;;23.64;58.31;101616.97;7395330;19;20014;-70
2023/06/21 09:46:49;;;;;;;12.38;9.65;;;;;;;23.71;58.26;101630.69;7395169;19;20022;-69
2023/06/21 09:49:16;;;;;;;14.38;12.02;;;;;;;23.76;57.73;101621.00;7395247;19;20162;-69
2023/06/21 09:51:46;;;;;;;14.77;10.52;;;;;;;23.76;57.52;101618.28;7393653;19;20043;-69
2023/06/21 09:54:13;;;;;;;13.02;9.82;;;;;;;23.84;57.85;101622.81;7394161;19;20022;-68
2023/06/21 09:56:41;;;;;;;12.75;10.13;;;;;;;23.87;57.22;101622.44;7394606;19;20019;-68
2023/06/21 09:59:15;;;;;;;12.25;8.85;;;;;;;23.92;56.78;101621.91;7395732;19;20022;-68
2023/06/21 10:01:45;;;;;;;14.13;10.48;;;;;;;23.94;57.00;101620.72;7393413;19;20015;-68
2023/06/21 10:04:14;;;;;;;14.55;10.45;;;;;;;23.96;57.26;101623.22;7395430;19;20022;-67
2023/06/21 10:06:51;;;;;;;12.23;9.05;;;;;;;24.13;56.87;101632.09;7394365;19;20472;-68
2023/06/21 10:09:18;;;;;;;12.88;9.85;;;;;;;24.12;56.94;101628.53;7394561;19;20030;-68
2023/06/21 10:11:49;;;;;;;13.10;9.32;;;;;;;24.15;56.02;101632.72;7393317;19;20078;-67
2023/06/21 10:14:25;;;;;;;12.85;8.82;;;;;;;24.20;56.09;101649.28;7395055;19;20555;-68
2023/06/21 10:16:53;;;;;;;13.52;8.77;;;;;;;24.23;55.87;101647.06;7393364;19;20093;-67
2023/06/21 10:19:23;;;;;;;13.15;9.82;;;;;;;24.18;55.32;101646.75;7394959;19;20025;-67
2023/06/21 10:21:58;;;;;;;12.65;9.00;;;;;;;24.20;54.99;101642.00;7390873;19;20029;-68
2023/06/21 10:24:26;;;;;;;12.95;8.63;;;;;;;24.28;54.29;101647.34;7392701;19;20798;-67
2023/06/21 10:26:55;;;;;;;11.30;8.82;;;;;;;24.45;54.84;101641.84;7393012;19;20019;-67
2023/06/21 10:29:23;;;;;;;11.50;8.48;;;;;;;24.44;54.87;101648.28;7392988;19;20087;-67
2023/06/21 10:31:53;;;;;;;11.95;8.63;;;;;;;24.54;54.39;101648.88;7392784;19;20010;-67
2023/06/21 10:34:24;;;;;;;12.07;9.00;;;;;;;24.71;53.59;101644.13;7393983;19;20086;-69
2023/06/21 10:36:59;;;;;;;13.18;8.73;;;;;;;24.82;53.36;101640.97;7392853;19;20018;-68
2023/06/21 10:39:31;;;;;;;11.02;8.02;;;;;;;24.91;53.21;101642.56;7394290;19;20022;-68
2023/06/21 10:41:59;;;;;;;11.73;8.15;;;;;;;25.08;52.83;101650.53;7392235;19;20029;-69
2023/06/21 10:44:30;;;;;;;12.90;9.65;;;;;;;24.97;53.17;101660.81;7394220;19;20020;-69
2023/06/21 10:46:59;;;;;;;14.82;10.13;;;;;;;24.85;53.78;101661.47;7394545;19;20025;-68
2023/06/21 10:49:29;;;;;;;11.18;7.72;;;;;;;24.80;54.10;101660.16;7392497;19;20459;-68
2023/06/21 10:51:57;;;;;;;12.18;8.60;;;;;;;24.87;53.37;101654.81;7391606;19;20022;-69
2023/06/21 10:54:25;;;;;;;14.77;8.40;;;;;;;24.98;52.95;101658.94;7393119;19;20086;-68
2023/06/21 10:56:53;;;;;;;12.38;8.23;;;;;;;24.89;53.13;101657.34;7392498;19;20493;-68
2023/06/21 10:59:24;;;;;;;12.63;9.30;;;;;;;24.89;53.23;101660.06;7392743;19;20026;-68
2023/06/21 11:01:52;;;;;;;12.10;8.80;;;;;;;24.89;53.25;101663.59;7392060;19;20030;-68
2023/06/21 11:04:20;;;;;;;13.95;8.40;;;;;;;24.95;53.24;101676.41;7392624;19;20018;-68
2023/06/21 11:06:47;;;;;;;10.85;8.13;;;;;;;25.03;53.12;101672.75;7392486;19;20030;-69
2023/06/21 11:09:16;;;;;;;11.32;7.55;;;;;;;25.23;52.94;101683.94;7393034;19;20029;-69
2023/06/21 11:11:51;;;;;;;11.63;7.38;;;;;;;25.32;52.10;101680.09;7391431;19;20015;-69
2023/06/21 11:14:30;;;;;;;11.20;7.70;;;;;;;25.34;51.50;101682.63;7392611;19;20035;-69
2023/06/21 11:17:07;;;;;;;11.32;7.85;;;;;;;25.50;51.18;101677.84;7392294;19;20015;-68
2023/06/21 11:19:37;;;;;;;11.38;7.15;;;;;;;25.48;50.36;101685.31;7392628;19;20034;-68
2023/06/21 11:22:21;;;;;;;12.57;7.78;;;;;;;25.47;50.40;101683.66;7389858;19;20443;-67
2023/06/21 11:24:50;;;;;;;9.70;6.45;;;;;;;25.34;50.49;101682.63;7392216;19;20592;-67